RYR29NH LEVC-LPPR
Flight info
| Callsign | RYR29NH |
|---|---|
| Flight time | 1h 23m |
| Altitude | 31000 |
| Route | CENTA N733 PRADO/N0430F330 N733 ZMR L155 ADORO DCT CANAR DCT INKIT |
| Aircraft | B38M/M-SDE1FGHILORVWXY/HB1 |
Departure
| Time | 2026-05-04 14:56 |
|---|---|
| Airport | Valencia Airport (LEVC) |
Arrival
| Time | 2026-05-04 16:20 |
|---|---|
| Airport | Francisco de Sá Carneiro Airport (LPPR) |
| Time | Latitude | Longitude | Altitude | Speed | Heading |
|---|---|---|---|---|---|
| 2026-05-04 14:02 | 39.49038 | -0.47334 | 197 ft | 0 kts | 12° |
| 2026-05-04 14:44 | 39.49027 | -0.47337 | 209 ft | 3 kts | 351° |
| 2026-05-04 14:44 | 39.49016 | -0.47341 | 200 ft | 3 kts | 21° |
| 2026-05-04 14:45 | 39.48995 | -0.47351 | 208 ft | 3 kts | 14° |
| 2026-05-04 14:45 | 39.48973 | -0.47355 | 210 ft | 3 kts | 357° |
| 2026-05-04 14:45 | 39.48954 | -0.47348 | 205 ft | 3 kts | 323° |
| 2026-05-04 14:45 | 39.48952 | -0.47347 | 206 ft | 0 kts | 287° |
| 2026-05-04 14:48 | 39.48953 | -0.47353 | 203 ft | 1 kts | 287° |
| 2026-05-04 14:49 | 39.48955 | -0.47359 | 202 ft | 1 kts | 289° |
| 2026-05-04 14:49 | 39.48958 | -0.47369 | 200 ft | 2 kts | 294° |
| 2026-05-04 14:49 | 39.48964 | -0.47386 | 210 ft | 2 kts | 295° |
| 2026-05-04 14:49 | 39.48969 | -0.47399 | 203 ft | 1 kts | 295° |
| 2026-05-04 14:50 | 39.48974 | -0.47412 | 203 ft | 2 kts | 295° |
| 2026-05-04 14:50 | 39.48981 | -0.47432 | 209 ft | 3 kts | 296° |
| 2026-05-04 14:50 | 39.49005 | -0.47493 | 204 ft | 12 kts | 296° |
| 2026-05-04 14:50 | 39.49051 | -0.47616 | 213 ft | 16 kts | 293° |
| 2026-05-04 14:51 | 39.49043 | -0.47756 | 210 ft | 16 kts | 256° |
| 2026-05-04 14:51 | 39.49034 | -0.47900 | 213 ft | 17 kts | 288° |
| 2026-05-04 14:51 | 39.49088 | -0.48042 | 211 ft | 19 kts | 296° |
| 2026-05-04 14:51 | 39.49146 | -0.48195 | 219 ft | 19 kts | 296° |
| 2026-05-04 14:52 | 39.49203 | -0.48347 | 222 ft | 19 kts | 296° |
| 2026-05-04 14:52 | 39.49263 | -0.48497 | 223 ft | 19 kts | 296° |
| 2026-05-04 14:52 | 39.49320 | -0.48646 | 226 ft | 19 kts | 296° |
| 2026-05-04 14:52 | 39.49379 | -0.48803 | 227 ft | 20 kts | 296° |
| 2026-05-04 14:53 | 39.49442 | -0.48970 | 231 ft | 21 kts | 296° |
| 2026-05-04 14:53 | 39.49509 | -0.49148 | 231 ft | 23 kts | 296° |
| 2026-05-04 14:53 | 39.49579 | -0.49332 | 236 ft | 23 kts | 296° |
| 2026-05-04 14:53 | 39.49651 | -0.49520 | 240 ft | 23 kts | 296° |
| 2026-05-04 14:54 | 39.49722 | -0.49704 | 245 ft | 23 kts | 296° |
| 2026-05-04 14:54 | 39.49783 | -0.49866 | 251 ft | 13 kts | 295° |
| 2026-05-04 14:54 | 39.49787 | -0.49947 | 253 ft | 9 kts | 235° |
| 2026-05-04 14:54 | 39.49739 | -0.49990 | 255 ft | 8 kts | 207° |
| 2026-05-04 14:55 | 39.49685 | -0.50025 | 256 ft | 9 kts | 203° |
| 2026-05-04 14:55 | 39.49628 | -0.49981 | 254 ft | 14 kts | 116° |
| 2026-05-04 14:55 | 39.49541 | -0.49754 | 246 ft | 55 kts | 116° |
| 2026-05-04 14:55 | 39.49283 | -0.49078 | 235 ft | 111 kts | 116° |
| 2026-05-04 14:56 | 39.48873 | -0.47995 | 224 ft | 151 kts | 116° |
| 2026-05-04 14:56 | 39.48392 | -0.46787 | 726 ft | 152 kts | 116° |
| 2026-05-04 14:56 | 39.47903 | -0.45565 | 1282 ft | 152 kts | 118° |
| 2026-05-04 14:56 | 39.47389 | -0.44322 | 1613 ft | 166 kts | 123° |
| 2026-05-04 14:57 | 39.46586 | -0.43129 | 2162 ft | 185 kts | 139° |
| 2026-05-04 14:57 | 39.45521 | -0.42018 | 2883 ft | 205 kts | 144° |
| 2026-05-04 14:57 | 39.44512 | -0.40603 | 3551 ft | 230 kts | 125° |
| 2026-05-04 14:57 | 39.43576 | -0.38786 | 4342 ft | 251 kts | 126° |
| 2026-05-04 14:58 | 39.42569 | -0.36857 | 5171 ft | 270 kts | 126° |
| 2026-05-04 14:58 | 39.41476 | -0.34775 | 6084 ft | 284 kts | 127° |
| 2026-05-04 14:58 | 39.40360 | -0.32669 | 7161 ft | 289 kts | 130° |
| 2026-05-04 14:58 | 39.38844 | -0.31018 | 8210 ft | 281 kts | 162° |
| 2026-05-04 14:59 | 39.36978 | -0.30674 | 9269 ft | 273 kts | 194° |
| 2026-05-04 14:59 | 39.35310 | -0.31678 | 10267 ft | 267 kts | 225° |
| 2026-05-04 14:59 | 39.33220 | -0.35914 | 11619 ft | 295 kts | 236° |
| 2026-05-04 15:00 | 39.32120 | -0.38176 | 12516 ft | 299 kts | 243° |
| 2026-05-04 15:00 | 39.31307 | -0.40677 | 13512 ft | 302 kts | 251° |
| 2026-05-04 15:00 | 39.30751 | -0.43307 | 14382 ft | 306 kts | 257° |
| 2026-05-04 15:01 | 39.30365 | -0.48838 | 16100 ft | 314 kts | 268° |
| 2026-05-04 15:01 | 39.30552 | -0.51646 | 16921 ft | 319 kts | 274° |
| 2026-05-04 15:01 | 39.31006 | -0.54464 | 17748 ft | 325 kts | 280° |
| 2026-05-04 15:01 | 39.31733 | -0.57238 | 18511 ft | 331 kts | 286° |
| 2026-05-04 15:02 | 39.32756 | -0.59972 | 19204 ft | 338 kts | 293° |
| 2026-05-04 15:02 | 39.34047 | -0.62530 | 19877 ft | 346 kts | 300° |
| 2026-05-04 15:02 | 39.35808 | -0.64766 | 20558 ft | 361 kts | 314° |
| 2026-05-04 15:02 | 39.37781 | -0.66766 | 21215 ft | 364 kts | 314° |
| 2026-05-04 15:03 | 39.39801 | -0.68769 | 21827 ft | 369 kts | 314° |
| 2026-05-04 15:03 | 39.41873 | -0.70793 | 22458 ft | 373 kts | 314° |
| 2026-05-04 15:03 | 39.43950 | -0.72804 | 23112 ft | 376 kts | 315° |
| 2026-05-04 15:03 | 39.46053 | -0.74830 | 23664 ft | 381 kts | 315° |
| 2026-05-04 15:04 | 39.48208 | -0.76903 | 24140 ft | 384 kts | 315° |
| 2026-05-04 15:04 | 39.50346 | -0.78960 | 24628 ft | 387 kts | 315° |
| 2026-05-04 15:04 | 39.52528 | -0.81060 | 25125 ft | 390 kts | 315° |
| 2026-05-04 15:04 | 39.54695 | -0.83148 | 25616 ft | 392 kts | 315° |
| 2026-05-04 15:05 | 39.56886 | -0.85261 | 26095 ft | 395 kts | 315° |
| 2026-05-04 15:05 | 39.59112 | -0.87408 | 26574 ft | 397 kts | 315° |
| 2026-05-04 15:05 | 39.61343 | -0.89561 | 27053 ft | 400 kts | 315° |
| 2026-05-04 15:05 | 39.63575 | -0.91718 | 27534 ft | 403 kts | 315° |
| 2026-05-04 15:06 | 39.65817 | -0.93887 | 27988 ft | 406 kts | 315° |
| 2026-05-04 15:06 | 39.68111 | -0.96106 | 28449 ft | 409 kts | 315° |
| 2026-05-04 15:06 | 39.70251 | -0.98460 | 28961 ft | 397 kts | 302° |
| 2026-05-04 15:07 | 39.73122 | -1.04343 | 30144 ft | 384 kts | 293° |
| 2026-05-04 15:07 | 39.74467 | -1.07322 | 30615 ft | 382 kts | 292° |
| 2026-05-04 15:07 | 39.75810 | -1.10346 | 30915 ft | 384 kts | 292° |
| 2026-05-04 15:08 | 39.78424 | -1.16317 | 30958 ft | 379 kts | 292° |
| 2026-05-04 15:08 | 39.80996 | -1.22235 | 30940 ft | 378 kts | 291° |
| 2026-05-04 15:09 | 39.83576 | -1.28188 | 30938 ft | 377 kts | 291° |
| 2026-05-04 15:09 | 39.86145 | -1.34127 | 30954 ft | 376 kts | 291° |
| 2026-05-04 15:10 | 39.89982 | -1.43016 | 30953 ft | 375 kts | 291° |
| 2026-05-04 15:11 | 39.93809 | -1.51908 | 30967 ft | 375 kts | 291° |
| 2026-05-04 15:11 | 39.96355 | -1.57839 | 30973 ft | 375 kts | 291° |
| 2026-05-04 15:12 | 39.98899 | -1.63778 | 30971 ft | 375 kts | 291° |
| 2026-05-04 15:12 | 40.01438 | -1.69714 | 30966 ft | 375 kts | 291° |
| 2026-05-04 15:13 | 40.03959 | -1.75620 | 30979 ft | 374 kts | 291° |
| 2026-05-04 15:13 | 40.06486 | -1.81552 | 30981 ft | 374 kts | 291° |
| 2026-05-04 15:14 | 40.09006 | -1.87481 | 30979 ft | 373 kts | 291° |
| 2026-05-04 15:14 | 40.11523 | -1.93410 | 30979 ft | 373 kts | 291° |
| 2026-05-04 15:15 | 40.13630 | -1.98383 | 30983 ft | 373 kts | 291° |
| 2026-05-04 15:15 | 40.16125 | -2.04243 | 30977 ft | 373 kts | 292° |
| 2026-05-04 15:16 | 40.19913 | -2.13144 | 30971 ft | 373 kts | 292° |
| 2026-05-04 15:17 | 40.23660 | -2.22043 | 30969 ft | 373 kts | 292° |
| 2026-05-04 15:17 | 40.27400 | -2.30966 | 30967 ft | 373 kts | 292° |
| 2026-05-04 15:18 | 40.29895 | -2.36931 | 30968 ft | 373 kts | 292° |
| 2026-05-04 15:19 | 40.33617 | -2.45853 | 30954 ft | 372 kts | 292° |
| 2026-05-04 15:19 | 40.37321 | -2.54815 | 30956 ft | 371 kts | 291° |
| 2026-05-04 15:20 | 40.39684 | -2.60844 | 30952 ft | 371 kts | 291° |
| 2026-05-04 15:20 | 40.42033 | -2.66822 | 30948 ft | 371 kts | 291° |
| 2026-05-04 15:21 | 40.44399 | -2.72853 | 30951 ft | 371 kts | 291° |
| 2026-05-04 15:22 | 40.47936 | -2.81891 | 30944 ft | 372 kts | 291° |
| 2026-05-04 15:22 | 40.51483 | -2.90982 | 30948 ft | 372 kts | 291° |
| 2026-05-04 15:23 | 40.53831 | -2.97016 | 30948 ft | 371 kts | 291° |
| 2026-05-04 15:23 | 40.56183 | -3.03071 | 30945 ft | 371 kts | 291° |
| 2026-05-04 15:24 | 40.60860 | -3.15150 | 30944 ft | 371 kts | 291° |
| 2026-05-04 15:25 | 40.63189 | -3.21184 | 30941 ft | 372 kts | 291° |
| 2026-05-04 15:26 | 40.66691 | -3.30279 | 30943 ft | 372 kts | 291° |
| 2026-05-04 15:26 | 40.70194 | -3.39407 | 30942 ft | 372 kts | 291° |
| 2026-05-04 15:27 | 40.73690 | -3.48544 | 30961 ft | 371 kts | 291° |
| 2026-05-04 15:28 | 40.77168 | -3.57660 | 30964 ft | 371 kts | 291° |
| 2026-05-04 15:29 | 40.80632 | -3.66771 | 30968 ft | 371 kts | 291° |
| 2026-05-04 15:30 | 40.88701 | -3.88098 | 30975 ft | 371 kts | 291° |
| 2026-05-04 15:31 | 40.92141 | -3.97240 | 30985 ft | 371 kts | 291° |
| 2026-05-04 15:32 | 40.97867 | -4.12515 | 30980 ft | 371 kts | 291° |
| 2026-05-04 15:34 | 41.03560 | -4.27784 | 30971 ft | 371 kts | 291° |
| 2026-05-04 15:34 | 41.06982 | -4.36997 | 30970 ft | 371 kts | 291° |
| 2026-05-04 15:35 | 41.10383 | -4.46182 | 30960 ft | 370 kts | 291° |
| 2026-05-04 15:36 | 41.13785 | -4.55396 | 30955 ft | 370 kts | 291° |
| 2026-05-04 15:36 | 41.16042 | -4.61528 | 30958 ft | 370 kts | 291° |
| 2026-05-04 15:37 | 41.18284 | -4.67637 | 30961 ft | 370 kts | 291° |
| 2026-05-04 15:37 | 41.20538 | -4.73789 | 30960 ft | 370 kts | 291° |
| 2026-05-04 15:38 | 41.22785 | -4.79936 | 30964 ft | 370 kts | 291° |
| 2026-05-04 15:38 | 41.25027 | -4.86083 | 30964 ft | 369 kts | 291° |
| 2026-05-04 15:39 | 41.27269 | -4.92242 | 30963 ft | 369 kts | 291° |
| 2026-05-04 15:40 | 41.30612 | -5.01451 | 30965 ft | 369 kts | 291° |
| 2026-05-04 15:40 | 41.32841 | -5.07610 | 30962 ft | 369 kts | 291° |
| 2026-05-04 15:41 | 41.35064 | -5.13766 | 30965 ft | 369 kts | 291° |
| 2026-05-04 15:41 | 41.37284 | -5.19925 | 30964 ft | 369 kts | 291° |
| 2026-05-04 15:42 | 41.39502 | -5.26093 | 30960 ft | 369 kts | 291° |
| 2026-05-04 15:42 | 41.41712 | -5.32249 | 30960 ft | 369 kts | 291° |
| 2026-05-04 15:43 | 41.43912 | -5.38393 | 30958 ft | 368 kts | 291° |
| 2026-05-04 15:43 | 41.46120 | -5.44573 | 30961 ft | 368 kts | 290° |
| 2026-05-04 15:44 | 41.48307 | -5.50708 | 30952 ft | 368 kts | 290° |
| 2026-05-04 15:44 | 41.50505 | -5.56883 | 30953 ft | 368 kts | 290° |
| 2026-05-04 15:45 | 41.52537 | -5.63119 | 30935 ft | 361 kts | 278° |
| 2026-05-04 15:45 | 41.52681 | -5.66412 | 30951 ft | 356 kts | 264° |
| 2026-05-04 15:45 | 41.52503 | -5.69730 | 30945 ft | 357 kts | 264° |
| 2026-05-04 15:46 | 41.52111 | -5.76333 | 30943 ft | 357 kts | 264° |
| 2026-05-04 15:46 | 41.51659 | -5.82900 | 30942 ft | 357 kts | 263° |
| 2026-05-04 15:47 | 41.51183 | -5.89491 | 30944 ft | 357 kts | 263° |
| 2026-05-04 15:47 | 41.50905 | -5.93296 | 30939 ft | 356 kts | 263° |
| 2026-05-04 15:48 | 41.50420 | -5.99878 | 30948 ft | 356 kts | 263° |
| 2026-05-04 15:48 | 41.49685 | -6.09768 | 30945 ft | 356 kts | 263° |
| 2026-05-04 15:49 | 41.49196 | -6.16278 | 30949 ft | 355 kts | 263° |
| 2026-05-04 15:49 | 41.48903 | -6.20152 | 30952 ft | 355 kts | 263° |
| 2026-05-04 15:50 | 41.48405 | -6.26712 | 30954 ft | 355 kts | 263° |
| 2026-05-04 15:50 | 41.47902 | -6.33265 | 30953 ft | 355 kts | 263° |
| 2026-05-04 15:51 | 41.47423 | -6.39477 | 30953 ft | 354 kts | 263° |
| 2026-05-04 15:52 | 41.46709 | -6.48644 | 30962 ft | 338 kts | 263° |
| 2026-05-04 15:52 | 41.46469 | -6.51708 | 30967 ft | 333 kts | 263° |
| 2026-05-04 15:52 | 41.45797 | -6.57791 | 30958 ft | 331 kts | 252° |
| 2026-05-04 15:53 | 41.44346 | -6.63594 | 30843 ft | 327 kts | 253° |
| 2026-05-04 15:53 | 41.43674 | -6.66482 | 30192 ft | 332 kts | 253° |
| 2026-05-04 15:53 | 41.42984 | -6.69470 | 29367 ft | 339 kts | 253° |
| 2026-05-04 15:54 | 41.42290 | -6.72488 | 28523 ft | 346 kts | 253° |
| 2026-05-04 15:54 | 41.41576 | -6.75595 | 27682 ft | 352 kts | 253° |
| 2026-05-04 15:54 | 41.40856 | -6.78726 | 26870 ft | 358 kts | 253° |
| 2026-05-04 15:54 | 41.40121 | -6.81916 | 26077 ft | 362 kts | 253° |
| 2026-05-04 15:55 | 41.39383 | -6.85115 | 25492 ft | 362 kts | 253° |
| 2026-05-04 15:55 | 41.38644 | -6.88314 | 25056 ft | 358 kts | 253° |
| 2026-05-04 15:55 | 41.37919 | -6.91443 | 24664 ft | 353 kts | 253° |
| 2026-05-04 15:55 | 41.37196 | -6.94565 | 24267 ft | 348 kts | 253° |
| 2026-05-04 15:56 | 41.36489 | -6.97608 | 23889 ft | 345 kts | 253° |
| 2026-05-04 15:56 | 41.35778 | -7.00667 | 23481 ft | 341 kts | 253° |
| 2026-05-04 15:56 | 41.35102 | -7.03652 | 23127 ft | 336 kts | 254° |
| 2026-05-04 15:56 | 41.34438 | -7.06615 | 22910 ft | 327 kts | 254° |
| 2026-05-04 15:57 | 41.33797 | -7.09461 | 22595 ft | 322 kts | 254° |
| 2026-05-04 15:57 | 41.33152 | -7.12324 | 22238 ft | 319 kts | 254° |
| 2026-05-04 15:57 | 41.32521 | -7.15117 | 21861 ft | 316 kts | 254° |
| 2026-05-04 15:57 | 41.31895 | -7.17881 | 21498 ft | 312 kts | 254° |
| 2026-05-04 15:58 | 41.31267 | -7.20653 | 21146 ft | 310 kts | 254° |
| 2026-05-04 15:58 | 41.30652 | -7.23366 | 20789 ft | 307 kts | 254° |
| 2026-05-04 15:58 | 41.30033 | -7.26095 | 20430 ft | 305 kts | 254° |
| 2026-05-04 15:58 | 41.29422 | -7.28782 | 20087 ft | 302 kts | 254° |
| 2026-05-04 15:59 | 41.28812 | -7.31463 | 19746 ft | 300 kts | 254° |
| 2026-05-04 15:59 | 41.28216 | -7.34077 | 19417 ft | 297 kts | 254° |
| 2026-05-04 15:59 | 41.27619 | -7.36698 | 19088 ft | 295 kts | 254° |
| 2026-05-04 15:59 | 41.27028 | -7.39283 | 18760 ft | 293 kts | 254° |
| 2026-05-04 16:00 | 41.26433 | -7.41885 | 18432 ft | 291 kts | 254° |
| 2026-05-04 16:00 | 41.25843 | -7.44459 | 18082 ft | 289 kts | 254° |
| 2026-05-04 16:00 | 41.25264 | -7.46986 | 17741 ft | 286 kts | 254° |
| 2026-05-04 16:00 | 41.24687 | -7.49503 | 17415 ft | 283 kts | 254° |
| 2026-05-04 16:01 | 41.24119 | -7.51975 | 17111 ft | 279 kts | 254° |
| 2026-05-04 16:01 | 41.23557 | -7.54416 | 16801 ft | 277 kts | 254° |
| 2026-05-04 16:01 | 41.22995 | -7.56862 | 16495 ft | 273 kts | 254° |
| 2026-05-04 16:01 | 41.22443 | -7.59253 | 16209 ft | 270 kts | 254° |
| 2026-05-04 16:02 | 41.21901 | -7.61604 | 15934 ft | 267 kts | 254° |
| 2026-05-04 16:02 | 41.21354 | -7.63970 | 15635 ft | 265 kts | 254° |
| 2026-05-04 16:02 | 41.20254 | -7.68730 | 15051 ft | 274 kts | 254° |
| 2026-05-04 16:03 | 41.19698 | -7.71130 | 14757 ft | 275 kts | 254° |
| 2026-05-04 16:03 | 41.19131 | -7.73573 | 14469 ft | 276 kts | 254° |
| 2026-05-04 16:03 | 41.18568 | -7.75998 | 14171 ft | 277 kts | 254° |
| 2026-05-04 16:03 | 41.17995 | -7.78465 | 13871 ft | 277 kts | 254° |
| 2026-05-04 16:04 | 41.17430 | -7.80891 | 13525 ft | 275 kts | 254° |
| 2026-05-04 16:04 | 41.16307 | -7.85711 | 12907 ft | 271 kts | 254° |
| 2026-05-04 16:04 | 41.15755 | -7.88076 | 12603 ft | 268 kts | 254° |
| 2026-05-04 16:05 | 41.15207 | -7.90419 | 12323 ft | 265 kts | 254° |
| 2026-05-04 16:05 | 41.14665 | -7.92733 | 12041 ft | 263 kts | 254° |
| 2026-05-04 16:05 | 41.13588 | -7.97334 | 11475 ft | 257 kts | 254° |
| 2026-05-04 16:06 | 41.13063 | -7.99572 | 11211 ft | 254 kts | 254° |
| 2026-05-04 16:06 | 41.11675 | -8.05477 | 10484 ft | 249 kts | 254° |
| 2026-05-04 16:07 | 41.10975 | -8.08446 | 10120 ft | 257 kts | 254° |
| 2026-05-04 16:07 | 41.09365 | -8.15273 | 9241 ft | 260 kts | 254° |
| 2026-05-04 16:08 | 41.08821 | -8.17571 | 8907 ft | 259 kts | 254° |
| 2026-05-04 16:08 | 41.07223 | -8.24320 | 8051 ft | 253 kts | 255° |
| 2026-05-04 16:09 | 41.06177 | -8.28719 | 7525 ft | 246 kts | 255° |
| 2026-05-04 16:09 | 41.05173 | -8.32935 | 6986 ft | 235 kts | 255° |
| 2026-05-04 16:10 | 41.04211 | -8.36973 | 6504 ft | 227 kts | 255° |
| 2026-05-04 16:11 | 41.02788 | -8.42932 | 5759 ft | 225 kts | 255° |
| 2026-05-04 16:11 | 41.02312 | -8.44924 | 5501 ft | 224 kts | 255° |
| 2026-05-04 16:12 | 41.00898 | -8.50818 | 4775 ft | 223 kts | 255° |
| 2026-05-04 16:12 | 40.99497 | -8.56647 | 4241 ft | 216 kts | 255° |
| 2026-05-04 16:13 | 40.99728 | -8.60097 | 3975 ft | 177 kts | 305° |
| 2026-05-04 16:13 | 41.01767 | -8.61742 | 3797 ft | 177 kts | 341° |
| 2026-05-04 16:14 | 41.04168 | -8.62571 | 3615 ft | 178 kts | 343° |
| 2026-05-04 16:14 | 41.06590 | -8.63296 | 3368 ft | 178 kts | 345° |
| 2026-05-04 16:15 | 41.10193 | -8.64284 | 3005 ft | 177 kts | 345° |
| 2026-05-04 16:16 | 41.12315 | -8.64849 | 2692 ft | 143 kts | 345° |
| 2026-05-04 16:16 | 41.15176 | -8.65565 | 1888 ft | 137 kts | 343° |
| 2026-05-04 16:17 | 41.17042 | -8.66098 | 1577 ft | 137 kts | 346° |
| 2026-05-04 16:18 | 41.19846 | -8.66814 | 937 ft | 136 kts | 347° |
| 2026-05-04 16:18 | 41.20765 | -8.67066 | 792 ft | 135 kts | 344° |
| 2026-05-04 16:19 | 41.23496 | -8.67782 | 241 ft | 128 kts | 347° |
| 2026-05-04 16:19 | 41.24620 | -8.68076 | 208 ft | 58 kts | 349° |
| 2026-05-04 16:20 | 41.25245 | -8.68117 | 182 ft | 17 kts | 19° |
| 2026-05-04 16:20 | 41.25294 | -8.68058 | 180 ft | 3 kts | 86° |
| 2026-05-04 16:21 | 41.25223 | -8.68005 | 181 ft | 7 kts | 171° |
| 2026-05-04 16:22 | 41.25130 | -8.67981 | 183 ft | 6 kts | 169° |
| 2026-05-04 16:22 | 41.25056 | -8.67962 | 204 ft | 1 kts | 168° |
| 2026-05-04 16:23 | 41.24895 | -8.67913 | 205 ft | 20 kts | 164° |
| 2026-05-04 16:24 | 41.24262 | -8.67632 | 217 ft | 19 kts | 127° |
| 2026-05-04 16:25 | 41.24030 | -8.67529 | 225 ft | 19 kts | 169° |
| 2026-05-04 16:26 | 41.23679 | -8.67321 | 236 ft | 5 kts | 99° |
| 2026-05-04 16:26 | 41.23683 | -8.67258 | 239 ft | 0 kts | 84° |